sensor_id;sensor_type;location;lat;lon;timestamp;temperature;humidity
48734;DHT22;34530;52.084;5.146;2022-09-09T00:04:33;25.80;52.40
48734;DHT22;34530;52.084;5.146;2022-09-09T00:07:00;25.70;52.40
48734;DHT22;34530;52.084;5.146;2022-09-09T00:09:31;25.70;52.50
48734;DHT22;34530;52.084;5.146;2022-09-09T00:14:43;25.70;52.50
48734;DHT22;34530;52.084;5.146;2022-09-09T00:20:12;25.70;52.50
48734;DHT22;34530;52.084;5.146;2022-09-09T00:22:40;25.70;52.40
48734;DHT22;34530;52.084;5.146;2022-09-09T00:25:15;25.70;52.60
48734;DHT22;34530;52.084;5.146;2022-09-09T00:27:48;25.70;52.60
48734;DHT22;34530;52.084;5.146;2022-09-09T00:30:20;25.70;52.60
48734;DHT22;34530;52.084;5.146;2022-09-09T00:32:50;25.60;52.50
48734;DHT22;34530;52.084;5.146;2022-09-09T00:35:23;25.60;52.50
48734;DHT22;34530;52.084;5.146;2022-09-09T00:37:53;25.60;52.50
48734;DHT22;34530;52.084;5.146;2022-09-09T00:40:31;25.60;52.60
48734;DHT22;34530;52.084;5.146;2022-09-09T00:43:24;25.60;52.50
48734;DHT22;34530;52.084;5.146;2022-09-09T00:49:02;25.60;52.60
48734;DHT22;34530;52.084;5.146;2022-09-09T00:54:44;25.60;52.60
48734;DHT22;34530;52.084;5.146;2022-09-09T00:57:26;25.60;52.60
48734;DHT22;34530;52.084;5.146;2022-09-09T01:00:16;25.60;52.60
48734;DHT22;34530;52.084;5.146;2022-09-09T01:10:56;25.50;52.70
48734;DHT22;34530;52.084;5.146;2022-09-09T01:15:58;25.50;52.70
48734;DHT22;34530;52.084;5.146;2022-09-09T01:18:27;25.50;52.70
48734;DHT22;34530;52.084;5.146;2022-09-09T01:21:30;25.50;52.70
48734;DHT22;34530;52.084;5.146;2022-09-09T01:24:20;25.50;52.60
48734;DHT22;34530;52.084;5.146;2022-09-09T01:26:49;25.50;52.70
48734;DHT22;34530;52.084;5.146;2022-09-09T01:29:18;25.40;52.70
48734;DHT22;34530;52.084;5.146;2022-09-09T01:31:58;25.40;52.80
48734;DHT22;34530;52.084;5.146;2022-09-09T01:34:27;25.50;52.70
48734;DHT22;34530;52.084;5.146;2022-09-09T01:37:11;25.40;52.80
48734;DHT22;34530;52.084;5.146;2022-09-09T01:39:39;25.40;52.70
48734;DHT22;34530;52.084;5.146;2022-09-09T01:42:07;25.40;52.80
48734;DHT22;34530;52.084;5.146;2022-09-09T01:44:35;25.40;52.70
48734;DHT22;34530;52.084;5.146;2022-09-09T01:47:02;25.40;52.80
48734;DHT22;34530;52.084;5.146;2022-09-09T01:49:28;25.40;52.80
48734;DHT22;34530;52.084;5.146;2022-09-09T01:51:55;25.40;52.80
48734;DHT22;34530;52.084;5.146;2022-09-09T01:54:24;25.40;52.80
48734;DHT22;34530;52.084;5.146;2022-09-09T01:59:45;25.40;52.80
48734;DHT22;34530;52.084;5.146;2022-09-09T02:07:42;25.30;52.80
48734;DHT22;34530;52.084;5.146;2022-09-09T02:10:37;25.30;52.80
48734;DHT22;34530;52.084;5.146;2022-09-09T02:13:12;25.30;52.80
48734;DHT22;34530;52.084;5.146;2022-09-09T02:16:07;25.30;52.80
48734;DHT22;34530;52.084;5.146;2022-09-09T02:18:43;25.30;52.80
48734;DHT22;34530;52.084;5.146;2022-09-09T02:21:11;25.30;52.90
48734;DHT22;34530;52.084;5.146;2022-09-09T02:23:38;25.30;52.90
48734;DHT22;34530;52.084;5.146;2022-09-09T02:26:06;25.30;52.90
48734;DHT22;34530;52.084;5.146;2022-09-09T02:28:34;25.30;52.90
48734;DHT22;34530;52.084;5.146;2022-09-09T02:31:01;25.30;52.90
48734;DHT22;34530;52.084;5.146;2022-09-09T02:33:30;25.20;52.90
48734;DHT22;34530;52.084;5.146;2022-09-09T02:35:59;25.20;52.90
48734;DHT22;34530;52.084;5.146;2022-09-09T02:38:34;25.20;52.90
48734;DHT22;34530;52.084;5.146;2022-09-09T02:41:01;25.20;52.90
48734;DHT22;34530;52.084;5.146;2022-09-09T02:43:31;25.20;52.90
48734;DHT22;34530;52.084;5.146;2022-09-09T02:49:10;25.20;52.90
48734;DHT22;34530;52.084;5.146;2022-09-09T02:54:32;25.20;52.90
48734;DHT22;34530;52.084;5.146;2022-09-09T02:57:17;25.20;52.90
48734;DHT22;34530;52.084;5.146;2022-09-09T02:59:44;25.10;52.90
48734;DHT22;34530;52.084;5.146;2022-09-09T03:02:10;25.10;52.90
48734;DHT22;34530;52.084;5.146;2022-09-09T03:04:37;25.10;53.00
48734;DHT22;34530;52.084;5.146;2022-09-09T03:07:03;25.10;52.90
48734;DHT22;34530;52.084;5.146;2022-09-09T03:09:29;25.10;53.00
48734;DHT22;34530;52.084;5.146;2022-09-09T03:11:55;25.10;52.90
48734;DHT22;34530;52.084;5.146;2022-09-09T03:14:22;25.10;53.00
48734;DHT22;34530;52.084;5.146;2022-09-09T03:16:51;25.10;53.00
48734;DHT22;34530;52.084;5.146;2022-09-09T03:19:16;25.10;53.00
48734;DHT22;34530;52.084;5.146;2022-09-09T03:21:44;25.10;53.00
48734;DHT22;34530;52.084;5.146;2022-09-09T03:24:10;25.10;53.00
48734;DHT22;34530;52.084;5.146;2022-09-09T03:26:35;25.10;53.00
48734;DHT22;34530;52.084;5.146;2022-09-09T03:29:03;25.10;53.00
48734;DHT22;34530;52.084;5.146;2022-09-09T03:31:32;25.00;53.00
48734;DHT22;34530;52.084;5.146;2022-09-09T03:33:58;25.00;53.00
48734;DHT22;34530;52.084;5.146;2022-09-09T03:36:25;25.00;53.00
48734;DHT22;34530;52.084;5.146;2022-09-09T03:38:52;25.00;53.00
48734;DHT22;34530;52.084;5.146;2022-09-09T03:41:17;25.00;53.00
48734;DHT22;34530;52.084;5.146;2022-09-09T03:43:43;25.00;53.00
48734;DHT22;34530;52.084;5.146;2022-09-09T03:46:09;25.00;53.00
48734;DHT22;34530;52.084;5.146;2022-09-09T03:48:35;25.00;53.00
48734;DHT22;34530;52.084;5.146;2022-09-09T03:51:01;25.00;53.00
48734;DHT22;34530;52.084;5.146;2022-09-09T03:53:29;25.00;53.00
48734;DHT22;34530;52.084;5.146;2022-09-09T03:55:56;25.00;53.00
48734;DHT22;34530;52.084;5.146;2022-09-09T03:58:25;24.90;53.00
48734;DHT22;34530;52.084;5.146;2022-09-09T04:00:57;24.90;53.00
48734;DHT22;34530;52.084;5.146;2022-09-09T04:03:23;24.90;53.00
48734;DHT22;34530;52.084;5.146;2022-09-09T04:05:53;24.90;53.00
48734;DHT22;34530;52.084;5.146;2022-09-09T04:08:19;24.90;53.10
48734;DHT22;34530;52.084;5.146;2022-09-09T04:10:47;24.90;53.10
48734;DHT22;34530;52.084;5.146;2022-09-09T04:13:14;24.90;53.10
48734;DHT22;34530;52.084;5.146;2022-09-09T04:15:40;24.90;53.10
48734;DHT22;34530;52.084;5.146;2022-09-09T04:18:06;24.90;53.20
48734;DHT22;34530;52.084;5.146;2022-09-09T04:20:32;24.90;53.10
48734;DHT22;34530;52.084;5.146;2022-09-09T04:22:58;24.90;53.10
48734;DHT22;34530;52.084;5.146;2022-09-09T04:25:24;24.90;53.20
48734;DHT22;34530;52.084;5.146;2022-09-09T04:27:56;24.80;53.10
48734;DHT22;34530;52.084;5.146;2022-09-09T04:30:23;24.80;53.10
48734;DHT22;34530;52.084;5.146;2022-09-09T04:32:49;24.80;53.10
48734;DHT22;34530;52.084;5.146;2022-09-09T04:35:14;24.80;53.10
48734;DHT22;34530;52.084;5.146;2022-09-09T04:37:40;24.80;53.10
48734;DHT22;34530;52.084;5.146;2022-09-09T04:40:07;24.80;53.10
48734;DHT22;34530;52.084;5.146;2022-09-09T04:42:38;24.80;53.10
48734;DHT22;34530;52.084;5.146;2022-09-09T04:45:05;24.80;53.20
48734;DHT22;34530;52.084;5.146;2022-09-09T04:47:31;24.80;53.20
48734;DHT22;34530;52.084;5.146;2022-09-09T04:49:57;24.70;53.10
48734;DHT22;34530;52.084;5.146;2022-09-09T04:52:22;24.70;53.20
48734;DHT22;34530;52.084;5.146;2022-09-09T04:54:48;24.70;53.10
48734;DHT22;34530;52.084;5.146;2022-09-09T04:57:14;24.70;53.20
48734;DHT22;34530;52.084;5.146;2022-09-09T04:59:39;24.70;53.20
48734;DHT22;34530;52.084;5.146;2022-09-09T05:02:05;24.70;53.20
48734;DHT22;34530;52.084;5.146;2022-09-09T05:04:31;24.70;53.20
48734;DHT22;34530;52.084;5.146;2022-09-09T05:06:56;24.70;53.20
48734;DHT22;34530;52.084;5.146;2022-09-09T05:09:22;24.70;53.30
48734;DHT22;34530;52.084;5.146;2022-09-09T05:11:48;24.70;53.20
48734;DHT22;34530;52.084;5.146;2022-09-09T05:14:14;24.70;53.30
48734;DHT22;34530;52.084;5.146;2022-09-09T05:16:40;24.70;53.30
48734;DHT22;34530;52.084;5.146;2022-09-09T05:19:06;24.70;53.30
48734;DHT22;34530;52.084;5.146;2022-09-09T05:21:33;24.60;53.20
48734;DHT22;34530;52.084;5.146;2022-09-09T05:23:59;24.60;53.20
48734;DHT22;34530;52.084;5.146;2022-09-09T05:26:28;24.60;53.20
48734;DHT22;34530;52.084;5.146;2022-09-09T05:28:55;24.60;53.30
48734;DHT22;34530;52.084;5.146;2022-09-09T05:31:20;24.60;53.30
48734;DHT22;34530;52.084;5.146;2022-09-09T05:33:47;24.60;53.30
48734;DHT22;34530;52.084;5.146;2022-09-09T05:36:18;24.60;53.30
48734;DHT22;34530;52.084;5.146;2022-09-09T05:38:44;24.60;53.30
48734;DHT22;34530;52.084;5.146;2022-09-09T05:41:11;24.60;53.30
48734;DHT22;34530;52.084;5.146;2022-09-09T05:43:38;24.50;53.30
48734;DHT22;34530;52.084;5.146;2022-09-09T05:46:08;24.60;53.30
48734;DHT22;34530;52.084;5.146;2022-09-09T05:48:39;24.50;53.30
48734;DHT22;34530;52.084;5.146;2022-09-09T05:51:07;24.50;53.30
48734;DHT22;34530;52.084;5.146;2022-09-09T05:53:33;24.50;53.40
48734;DHT22;34530;52.084;5.146;2022-09-09T05:56:02;24.50;53.30
48734;DHT22;34530;52.084;5.146;2022-09-09T05:58:33;24.50;53.40
48734;DHT22;34530;52.084;5.146;2022-09-09T06:01:16;24.50;53.40
48734;DHT22;34530;52.084;5.146;2022-09-09T06:03:43;24.50;53.30
48734;DHT22;34530;52.084;5.146;2022-09-09T06:06:11;24.50;53.50
48734;DHT22;34530;52.084;5.146;2022-09-09T06:08:39;24.50;53.50
48734;DHT22;34530;52.084;5.146;2022-09-09T06:11:10;24.50;53.50
48734;DHT22;34530;52.084;5.146;2022-09-09T06:13:36;24.40;54.00
48734;DHT22;34530;52.084;5.146;2022-09-09T06:16:05;24.50;53.50
48734;DHT22;34530;52.084;5.146;2022-09-09T06:18:32;24.40;53.40
48734;DHT22;34530;52.084;5.146;2022-09-09T06:21:00;24.40;53.40
48734;DHT22;34530;52.084;5.146;2022-09-09T06:23:27;24.40;53.40
48734;DHT22;34530;52.084;5.146;2022-09-09T06:26:14;24.40;53.60
48734;DHT22;34530;52.084;5.146;2022-09-09T06:28:40;24.40;54.10
48734;DHT22;34530;52.084;5.146;2022-09-09T06:31:10;24.40;53.60
48734;DHT22;34530;52.084;5.146;2022-09-09T06:33:40;24.40;53.60
48734;DHT22;34530;52.084;5.146;2022-09-09T06:36:16;24.40;53.60
48734;DHT22;34530;52.084;5.146;2022-09-09T06:38:43;24.40;53.50
48734;DHT22;34530;52.084;5.146;2022-09-09T06:41:10;24.40;53.60
48734;DHT22;34530;52.084;5.146;2022-09-09T06:43:37;24.40;53.60
48734;DHT22;34530;52.084;5.146;2022-09-09T06:46:09;24.30;53.60
48734;DHT22;34530;52.084;5.146;2022-09-09T06:48:36;24.40;53.60
48734;DHT22;34530;52.084;5.146;2022-09-09T06:51:04;24.30;53.60
48734;DHT22;34530;52.084;5.146;2022-09-09T06:53:30;24.30;53.60
48734;DHT22;34530;52.084;5.146;2022-09-09T06:55:59;24.30;53.60
48734;DHT22;34530;52.084;5.146;2022-09-09T06:58:26;24.30;53.60
48734;DHT22;34530;52.084;5.146;2022-09-09T07:00:52;24.30;53.60
48734;DHT22;34530;52.084;5.146;2022-09-09T07:03:18;24.30;53.60
48734;DHT22;34530;52.084;5.146;2022-09-09T07:05:44;24.30;53.60
48734;DHT22;34530;52.084;5.146;2022-09-09T07:08:18;24.30;53.70
48734;DHT22;34530;52.084;5.146;2022-09-09T07:10:44;24.30;53.70
48734;DHT22;34530;52.084;5.146;2022-09-09T07:13:10;24.30;53.70
48734;DHT22;34530;52.084;5.146;2022-09-09T07:15:35;24.30;54.30
48734;DHT22;34530;52.084;5.146;2022-09-09T07:18:01;24.30;53.70
48734;DHT22;34530;52.084;5.146;2022-09-09T07:20:27;24.30;53.70
48734;DHT22;34530;52.084;5.146;2022-09-09T07:22:55;24.30;53.80
48734;DHT22;34530;52.084;5.146;2022-09-09T07:25:20;24.30;53.80
48734;DHT22;34530;52.084;5.146;2022-09-09T07:27:47;24.30;53.80
48734;DHT22;34530;52.084;5.146;2022-09-09T07:30:13;24.30;53.80
48734;DHT22;34530;52.084;5.146;2022-09-09T07:32:39;24.20;53.80
48734;DHT22;34530;52.084;5.146;2022-09-09T07:35:05;24.20;53.80
48734;DHT22;34530;52.084;5.146;2022-09-09T07:37:31;24.20;53.80
48734;DHT22;34530;52.084;5.146;2022-09-09T07:39:57;24.30;53.90
48734;DHT22;34530;52.084;5.146;2022-09-09T07:42:22;24.20;53.90
48734;DHT22;34530;52.084;5.146;2022-09-09T07:44:48;24.20;53.90
48734;DHT22;34530;52.084;5.146;2022-09-09T07:47:13;24.20;53.90
48734;DHT22;34530;52.084;5.146;2022-09-09T07:49:41;24.20;53.90
48734;DHT22;34530;52.084;5.146;2022-09-09T07:52:07;24.20;54.00
48734;DHT22;34530;52.084;5.146;2022-09-09T07:54:32;24.20;54.00
48734;DHT22;34530;52.084;5.146;2022-09-09T07:56:58;24.20;54.00
48734;DHT22;34530;52.084;5.146;2022-09-09T07:59:23;24.20;54.00
48734;DHT22;34530;52.084;5.146;2022-09-09T08:01:51;24.20;54.10
48734;DHT22;34530;52.084;5.146;2022-09-09T08:04:21;24.20;54.10
48734;DHT22;34530;52.084;5.146;2022-09-09T08:06:49;24.20;54.10
48734;DHT22;34530;52.084;5.146;2022-09-09T08:09:15;24.20;54.10
48734;DHT22;34530;52.084;5.146;2022-09-09T08:11:41;24.10;54.10
48734;DHT22;34530;52.084;5.146;2022-09-09T08:14:08;24.10;54.10
48734;DHT22;34530;52.084;5.146;2022-09-09T08:16:39;24.10;54.10
48734;DHT22;34530;52.084;5.146;2022-09-09T08:19:06;24.10;54.20
48734;DHT22;34530;52.084;5.146;2022-09-09T08:21:33;24.10;54.20
48734;DHT22;34530;52.084;5.146;2022-09-09T08:24:01;24.10;54.20
48734;DHT22;34530;52.084;5.146;2022-09-09T08:26:29;24.10;54.20
48734;DHT22;34530;52.084;5.146;2022-09-09T08:28:56;24.10;54.20
48734;DHT22;34530;52.084;5.146;2022-09-09T08:31:25;24.10;54.20
48734;DHT22;34530;52.084;5.146;2022-09-09T08:33:51;24.10;54.20
48734;DHT22;34530;52.084;5.146;2022-09-09T08:36:22;24.10;54.30
48734;DHT22;34530;52.084;5.146;2022-09-09T08:38:50;24.00;54.20
48734;DHT22;34530;52.084;5.146;2022-09-09T08:44:37;24.00;54.30
48734;DHT22;34530;52.084;5.146;2022-09-09T08:53:04;24.00;54.40
48734;DHT22;34530;52.084;5.146;2022-09-09T08:58:23;24.00;54.50
48734;DHT22;34530;52.084;5.146;2022-09-09T09:03:54;24.00;54.50
48734;DHT22;34530;52.084;5.146;2022-09-09T09:06:52;24.00;54.60
48734;DHT22;34530;52.084;5.146;2022-09-09T09:10:04;24.00;54.50
48734;DHT22;34530;52.084;5.146;2022-09-09T09:12:16;24.00;54.60
48734;DHT22;34530;52.084;5.146;2022-09-09T09:14:43;24.00;54.60
48734;DHT22;34530;52.084;5.146;2022-09-09T09:17:18;23.90;54.60
48734;DHT22;34530;52.084;5.146;2022-09-09T09:19:46;23.90;54.60
48734;DHT22;34530;52.084;5.146;2022-09-09T09:27:40;23.90;54.50
48734;DHT22;34530;52.084;5.146;2022-09-09T09:30:18;23.90;54.60
48734;DHT22;34530;52.084;5.146;2022-09-09T09:33:06;23.90;54.60
48734;DHT22;34530;52.084;5.146;2022-09-09T09:35:34;23.90;54.60
48734;DHT22;34530;52.084;5.146;2022-09-09T09:37:59;23.90;54.60
48734;DHT22;34530;52.084;5.146;2022-09-09T09:40:26;23.90;54.60
48734;DHT22;34530;52.084;5.146;2022-09-09T09:43:00;23.90;54.60
48734;DHT22;34530;52.084;5.146;2022-09-09T09:45:32;23.90;54.60
48734;DHT22;34530;52.084;5.146;2022-09-09T09:48:08;23.90;54.60
48734;DHT22;34530;52.084;5.146;2022-09-09T09:50:34;23.90;54.60
48734;DHT22;34530;52.084;5.146;2022-09-09T09:53:04;23.90;54.70
48734;DHT22;34530;52.084;5.146;2022-09-09T09:55:32;23.90;54.70
48734;DHT22;34530;52.084;5.146;2022-09-09T09:58:04;23.90;54.70
48734;DHT22;34530;52.084;5.146;2022-09-09T10:00:30;23.90;54.70
48734;DHT22;34530;52.084;5.146;2022-09-09T10:02:56;23.80;54.70
48734;DHT22;34530;52.084;5.146;2022-09-09T10:05:24;23.90;54.80
48734;DHT22;34530;52.084;5.146;2022-09-09T10:08:13;23.80;54.80
48734;DHT22;34530;52.084;5.146;2022-09-09T10:16:17;23.90;54.80
48734;DHT22;34530;52.084;5.146;2022-09-09T10:29:30;23.90;55.00
48734;DHT22;34530;52.084;5.146;2022-09-09T10:40:20;23.80;55.00
48734;DHT22;34530;52.084;5.146;2022-09-09T10:42:52;23.80;55.00
48734;DHT22;34530;52.084;5.146;2022-09-09T10:45:40;23.80;55.00
48734;DHT22;34530;52.084;5.146;2022-09-09T10:48:27;23.80;55.00
48734;DHT22;34530;52.084;5.146;2022-09-09T10:53:49;23.80;55.10
48734;DHT22;34530;52.084;5.146;2022-09-09T10:56:20;23.80;55.10
48734;DHT22;34530;52.084;5.146;2022-09-09T10:58:54;23.80;55.20
48734;DHT22;34530;52.084;5.146;2022-09-09T11:01:30;23.80;55.10
48734;DHT22;34530;52.084;5.146;2022-09-09T11:04:05;23.80;55.10
48734;DHT22;34530;52.084;5.146;2022-09-09T11:06:44;23.80;55.10
48734;DHT22;34530;52.084;5.146;2022-09-09T11:09:26;23.80;55.10
48734;DHT22;34530;52.084;5.146;2022-09-09T11:11:54;23.90;55.20
48734;DHT22;34530;52.084;5.146;2022-09-09T11:14:48;23.80;55.20
48734;DHT22;34530;52.084;5.146;2022-09-09T11:17:16;23.80;55.20
48734;DHT22;34530;52.084;5.146;2022-09-09T11:19:44;23.80;55.20
48734;DHT22;34530;52.084;5.146;2022-09-09T11:22:32;23.80;55.30
48734;DHT22;34530;52.084;5.146;2022-09-09T11:33:37;23.80;55.30
48734;DHT22;34530;52.084;5.146;2022-09-09T11:36:15;23.80;55.30
48734;DHT22;34530;52.084;5.146;2022-09-09T11:38:47;23.80;55.40
48734;DHT22;34530;52.084;5.146;2022-09-09T11:41:14;23.80;55.40
48734;DHT22;34530;52.084;5.146;2022-09-09T11:43:51;23.80;55.40
48734;DHT22;34530;52.084;5.146;2022-09-09T11:46:20;23.80;55.30
48734;DHT22;34530;52.084;5.146;2022-09-09T11:49:02;23.80;55.40
48734;DHT22;34530;52.084;5.146;2022-09-09T11:51:30;23.80;55.30
48734;DHT22;34530;52.084;5.146;2022-09-09T11:54:01;23.80;55.40
48734;DHT22;34530;52.084;5.146;2022-09-09T11:56:33;23.80;55.40
48734;DHT22;34530;52.084;5.146;2022-09-09T11:59:19;23.80;55.40
48734;DHT22;34530;52.084;5.146;2022-09-09T12:01:46;23.80;55.40
48734;DHT22;34530;52.084;5.146;2022-09-09T12:04:38;23.80;55.50
48734;DHT22;34530;52.084;5.146;2022-09-09T12:07:35;23.80;55.40
48734;DHT22;34530;52.084;5.146;2022-09-09T12:10:19;23.80;55.40
48734;DHT22;34530;52.084;5.146;2022-09-09T12:12:45;23.80;55.50
48734;DHT22;34530;52.084;5.146;2022-09-09T12:17:45;23.80;55.60
48734;DHT22;34530;52.084;5.146;2022-09-09T12:20:22;23.80;55.60
48734;DHT22;34530;52.084;5.146;2022-09-09T12:32:02;23.80;55.60
48734;DHT22;34530;52.084;5.146;2022-09-09T12:34:47;23.70;55.60
48734;DHT22;34530;52.084;5.146;2022-09-09T12:37:26;23.70;55.70
48734;DHT22;34530;52.084;5.146;2022-09-09T12:39:58;23.70;55.70
48734;DHT22;34530;52.084;5.146;2022-09-09T12:42:25;23.80;55.80
48734;DHT22;34530;52.084;5.146;2022-09-09T12:44:56;23.70;55.70
48734;DHT22;34530;52.084;5.146;2022-09-09T12:47:42;23.80;55.80
48734;DHT22;34530;52.084;5.146;2022-09-09T12:50:27;23.80;55.80
48734;DHT22;34530;52.084;5.146;2022-09-09T12:53:03;23.80;55.80
48734;DHT22;34530;52.084;5.146;2022-09-09T12:55:35;23.80;55.80
48734;DHT22;34530;52.084;5.146;2022-09-09T12:58:02;23.80;55.80
48734;DHT22;34530;52.084;5.146;2022-09-09T13:00:35;23.80;55.80
48734;DHT22;34530;52.084;5.146;2022-09-09T13:03:17;23.80;55.80
48734;DHT22;34530;52.084;5.146;2022-09-09T13:05:43;23.80;55.80
48734;DHT22;34530;52.084;5.146;2022-09-09T13:08:11;23.80;55.80
48734;DHT22;34530;52.084;5.146;2022-09-09T13:10:44;23.80;55.80
48734;DHT22;34530;52.084;5.146;2022-09-09T13:13:16;23.80;55.80
48734;DHT22;34530;52.084;5.146;2022-09-09T13:15:52;23.80;55.80
48734;DHT22;34530;52.084;5.146;2022-09-09T13:18:22;23.80;55.80
48734;DHT22;34530;52.084;5.146;2022-09-09T13:20:49;23.80;55.90
48734;DHT22;34530;52.084;5.146;2022-09-09T13:23:17;23.80;55.90
48734;DHT22;34530;52.084;5.146;2022-09-09T13:25:56;23.80;55.90
48734;DHT22;34530;52.084;5.146;2022-09-09T13:28:28;23.80;55.90
48734;DHT22;34530;52.084;5.146;2022-09-09T13:31:05;23.80;55.90
48734;DHT22;34530;52.084;5.146;2022-09-09T13:33:44;23.80;55.90
48734;DHT22;34530;52.084;5.146;2022-09-09T13:36:11;23.80;55.90
48734;DHT22;34530;52.084;5.146;2022-09-09T13:38:56;23.80;55.90
48734;DHT22;34530;52.084;5.146;2022-09-09T13:41:25;23.80;55.90
48734;DHT22;34530;52.084;5.146;2022-09-09T13:43:52;23.80;55.90
48734;DHT22;34530;52.084;5.146;2022-09-09T13:46:38;23.80;55.90
48734;DHT22;34530;52.084;5.146;2022-09-09T13:51:37;23.80;55.90
48734;DHT22;34530;52.084;5.146;2022-09-09T13:54:05;23.80;55.90
48734;DHT22;34530;52.084;5.146;2022-09-09T13:56:33;23.80;55.90
48734;DHT22;34530;52.084;5.146;2022-09-09T13:58:58;23.80;56.00
48734;DHT22;34530;52.084;5.146;2022-09-09T14:01:24;23.80;56.00
48734;DHT22;34530;52.084;5.146;2022-09-09T14:03:52;23.80;56.00
48734;DHT22;34530;52.084;5.146;2022-09-09T14:06:18;23.80;56.10
48734;DHT22;34530;52.084;5.146;2022-09-09T14:08:44;23.80;56.10
48734;DHT22;34530;52.084;5.146;2022-09-09T14:11:12;23.80;56.20
48734;DHT22;34530;52.084;5.146;2022-09-09T14:13:38;23.80;56.10
48734;DHT22;34530;52.084;5.146;2022-09-09T14:16:04;23.80;56.20
48734;DHT22;34530;52.084;5.146;2022-09-09T14:18:30;23.80;56.20
48734;DHT22;34530;52.084;5.146;2022-09-09T14:20:55;23.80;56.20
48734;DHT22;34530;52.084;5.146;2022-09-09T14:23:22;23.80;56.20
48734;DHT22;34530;52.084;5.146;2022-09-09T14:25:50;23.80;56.30
48734;DHT22;34530;52.084;5.146;2022-09-09T14:28:16;23.80;56.30
48734;DHT22;34530;52.084;5.146;2022-09-09T14:30:42;23.80;56.30
48734;DHT22;34530;52.084;5.146;2022-09-09T14:33:11;23.80;56.90
48734;DHT22;34530;52.084;5.146;2022-09-09T14:35:37;23.80;56.30
48734;DHT22;34530;52.084;5.146;2022-09-09T14:38:04;23.80;56.50
48734;DHT22;34530;52.084;5.146;2022-09-09T14:40:30;23.80;56.50
48734;DHT22;34530;52.084;5.146;2022-09-09T14:42:55;23.80;56.50
48734;DHT22;34530;52.084;5.146;2022-09-09T14:45:22;23.80;56.50
48734;DHT22;34530;52.084;5.146;2022-09-09T14:47:50;23.80;56.50
48734;DHT22;34530;52.084;5.146;2022-09-09T14:50:16;23.80;56.50
48734;DHT22;34530;52.084;5.146;2022-09-09T14:52:42;23.80;56.60
48734;DHT22;34530;52.084;5.146;2022-09-09T14:55:08;23.80;56.60
48734;DHT22;34530;52.084;5.146;2022-09-09T14:57:33;23.80;56.60
48734;DHT22;34530;52.084;5.146;2022-09-09T15:00:01;23.80;56.70
48734;DHT22;34530;52.084;5.146;2022-09-09T15:02:27;23.80;56.70
48734;DHT22;34530;52.084;5.146;2022-09-09T15:04:52;23.80;56.70
48734;DHT22;34530;52.084;5.146;2022-09-09T15:07:18;23.80;56.80
48734;DHT22;34530;52.084;5.146;2022-09-09T15:09:44;23.80;56.70
48734;DHT22;34530;52.084;5.146;2022-09-09T15:12:10;23.80;56.70
48734;DHT22;34530;52.084;5.146;2022-09-09T15:14:36;23.80;57.10
48734;DHT22;34530;52.084;5.146;2022-09-09T15:17:01;23.80;56.70
48734;DHT22;34530;52.084;5.146;2022-09-09T15:19:27;23.80;57.40
48734;DHT22;34530;52.084;5.146;2022-09-09T15:21:52;23.80;56.80
48734;DHT22;34530;52.084;5.146;2022-09-09T15:24:18;23.80;56.70
48734;DHT22;34530;52.084;5.146;2022-09-09T15:26:43;23.80;56.70
48734;DHT22;34530;52.084;5.146;2022-09-09T15:29:09;23.80;56.80
48734;DHT22;34530;52.084;5.146;2022-09-09T15:31:35;23.80;56.80
48734;DHT22;34530;52.084;5.146;2022-09-09T15:34:03;23.80;56.80
48734;DHT22;34530;52.084;5.146;2022-09-09T15:36:37;23.80;56.80
48734;DHT22;34530;52.084;5.146;2022-09-09T15:39:05;23.80;56.70
48734;DHT22;34530;52.084;5.146;2022-09-09T15:41:31;23.80;56.80
48734;DHT22;34530;52.084;5.146;2022-09-09T15:43:57;23.80;56.80
48734;DHT22;34530;52.084;5.146;2022-09-09T15:46:32;23.80;56.80
48734;DHT22;34530;52.084;5.146;2022-09-09T15:51:45;23.80;56.90
48734;DHT22;34530;52.084;5.146;2022-09-09T15:54:13;23.80;56.80
48734;DHT22;34530;52.084;5.146;2022-09-09T15:56:40;23.80;56.90
48734;DHT22;34530;52.084;5.146;2022-09-09T15:59:06;23.80;56.90
48734;DHT22;34530;52.084;5.146;2022-09-09T16:01:32;23.80;56.90
48734;DHT22;34530;52.084;5.146;2022-09-09T16:03:58;23.80;56.90
48734;DHT22;34530;52.084;5.146;2022-09-09T16:06:26;23.80;56.90
48734;DHT22;34530;52.084;5.146;2022-09-09T16:08:53;23.80;56.90
48734;DHT22;34530;52.084;5.146;2022-09-09T16:11:27;23.80;56.90
48734;DHT22;34530;52.084;5.146;2022-09-09T16:13:54;23.80;56.90
48734;DHT22;34530;52.084;5.146;2022-09-09T16:16:23;23.80;56.90
48734;DHT22;34530;52.084;5.146;2022-09-09T16:18:52;23.80;56.90
48734;DHT22;34530;52.084;5.146;2022-09-09T16:21:33;23.80;57.50
48734;DHT22;34530;52.084;5.146;2022-09-09T16:24:01;23.80;56.90
48734;DHT22;34530;52.084;5.146;2022-09-09T16:26:32;23.80;56.90
48734;DHT22;34530;52.084;5.146;2022-09-09T16:28:58;23.80;56.90
48734;DHT22;34530;52.084;5.146;2022-09-09T16:31:25;23.80;56.90
48734;DHT22;34530;52.084;5.146;2022-09-09T16:33:52;23.80;56.90
48734;DHT22;34530;52.084;5.146;2022-09-09T16:36:24;23.80;56.90
48734;DHT22;34530;52.084;5.146;2022-09-09T16:38:57;23.80;56.90
48734;DHT22;34530;52.084;5.146;2022-09-09T16:41:25;23.80;56.90
48734;DHT22;34530;52.084;5.146;2022-09-09T16:43:59;23.80;57.00
48734;DHT22;34530;52.084;5.146;2022-09-09T16:46:27;23.80;57.00
48734;DHT22;34530;52.084;5.146;2022-09-09T16:48:55;23.80;56.90
48734;DHT22;34530;52.084;5.146;2022-09-09T16:51:24;23.80;56.90
48734;DHT22;34530;52.084;5.146;2022-09-09T16:53:50;23.90;57.00
48734;DHT22;34530;52.084;5.146;2022-09-09T16:56:19;23.80;56.90
48734;DHT22;34530;52.084;5.146;2022-09-09T16:58:53;23.80;57.00
48734;DHT22;34530;52.084;5.146;2022-09-09T17:01:21;23.80;56.90
48734;DHT22;34530;52.084;5.146;2022-09-09T17:03:46;23.80;56.90
48734;DHT22;34530;52.084;5.146;2022-09-09T17:06:13;23.80;57.00
48734;DHT22;34530;52.084;5.146;2022-09-09T17:08:40;23.80;57.00
48734;DHT22;34530;52.084;5.146;2022-09-09T17:11:17;23.80;56.90
48734;DHT22;34530;52.084;5.146;2022-09-09T17:13:45;23.80;56.90
48734;DHT22;34530;52.084;5.146;2022-09-09T17:16:13;23.80;56.90
48734;DHT22;34530;52.084;5.146;2022-09-09T17:18:39;23.80;56.90
48734;DHT22;34530;52.084;5.146;2022-09-09T17:21:07;23.80;56.90
48734;DHT22;34530;52.084;5.146;2022-09-09T17:23:39;23.80;56.90
48734;DHT22;34530;52.084;5.146;2022-09-09T17:26:07;23.90;56.90
48734;DHT22;34530;52.084;5.146;2022-09-09T17:28:34;23.80;56.90
48734;DHT22;34530;52.084;5.146;2022-09-09T17:31:00;23.80;56.90
48734;DHT22;34530;52.084;5.146;2022-09-09T17:33:29;23.80;56.90
48734;DHT22;34530;52.084;5.146;2022-09-09T17:35:58;23.80;56.90
48734;DHT22;34530;52.084;5.146;2022-09-09T17:38:25;23.80;56.90
48734;DHT22;34530;52.084;5.146;2022-09-09T17:41:01;23.80;56.90